14:30
Airports
History
Links
Donate
Help keep this website running!
PayPal
Bitcoin
Information on this page is community maintained and may be outdated or inaccurate and is intended for reference only or PC simulator navigating!
Always use approved charts for navigating.
C11
AmanaUpdated 21-May-2014
Amana (C11)
Amana, Iowa, United States (52203)
4
Lat/Lng:41° 47' 36.9" N / 91° 51' 53.18" W
41.793583 / -91.864772
Elevation:712'ft 217mMSL
Declination:E003°
ID / ICAO:C11
FAA:C11
Runways:1
Longest:(08-26) 788.6m 2,587ft Grass
Distance To
Airport ID:
Nearby VORs <50NM
Nearby NDBs
Nearby WeatherUpdated 03-30-17 13:52 GMT
Nearby weather at KCID, The Eastern Iowa located 10.1 nautical miles from C11
Altimeter: 29.67
Visibility: 10.0 statute miles
Wind: 11 knots (070°)
Temp: 6°c 43°f
Humidity: 100.0%

METAR: KCID 301352Z 07011G25KT 10SM OVC008 06/06 A2967 RMK AO2 PK WND 06027/1328 SLP052 T00560056 $

(Powered by phpweather)
Runway 08 / 26
Dimensions:788.6 x 29m 2587' x 95'ft
Surface:Grass
Runway 08 [A]Runway 26 [B]
Heading:080°MH  083°TH260°MH   263°TH
Lat:
Lng:
41° 47' 43.46"N
91° 52' 32.73"W
41° 47' 46.59"N
91° 51' 58.55"W
Google Map
Nearby Airports
(R) Green Castle 7.5 NM
IA24 ESE 110°
(C) The Eastern Iowa 10.1 NM
KCID (WX) NE 51°
(R) Weiss 11.2 NM
4IA8 SSW 205°
4 Chain Lakes Airpark 19.4 NM
5C7 NNE 23°
(U) Iowa City Muni 19.5 NM
KIOW (WX) ESE 123°
(R) Picayune 19.7 NM
IA16 ESE 107°
4 Sherman 20.4 NM
IA28 NNE 26°
VFR Chart
Flight Planning at SkyVector.com